Time,TemperatureF,DewpointF,PressureIn,WindDirection,WindDirectionDegrees,WindSpeedMPH,WindSpeedGustMPH,Humidity,HourlyPrecipIn,Conditions,Clouds,dailyrainin,SoftwareType,DateUTC
2013-07-21 00:00:00,79.6,71.4,29.86,SSW,194,0.0,1.0,76,0.00,,,0.00,Wunderground v.1.15,2013-07-21 04:00:00,
2013-07-21 00:01:00,79.5,71.3,29.86,SSW,194,0.0,1.0,76,0.00,,,0.00,Wunderground v.1.15,2013-07-21 04:01:00,
2013-07-21 00:02:00,79.5,71.3,29.86,SSW,194,0.0,1.0,76,0.00,,,0.00,Wunderground v.1.15,2013-07-21 04:02:00,
2013-07-21 00:06:00,79.4,71.2,29.86,SSW,194,0.0,1.0,76,0.00,,,0.00,Wunderground v.1.15,2013-07-21 04:06:00,
2013-07-21 00:07:00,79.4,71.6,29.86,SSW,194,0.0,1.0,77,0.00,,,0.00,Wunderground v.1.15,2013-07-21 04:07:00,
2013-07-21 00:08:00,79.3,71.5,29.86,SSW,194,0.0,1.0,77,0.00,,,0.00,Wunderground v.1.15,2013-07-21 04:08:00,
2013-07-21 00:13:00,79.2,71.4,29.86,SW,215,2.0,4.0,77,0.00,,,0.00,Wunderground v.1.15,2013-07-21 04:13:00,
2013-07-21 00:19:00,79.1,71.3,29.86,SW,228,2.0,4.0,77,0.00,,,0.00,Wunderground v.1.15,2013-07-21 04:19:00,
2013-07-21 00:24:00,79.0,71.2,29.86,SW,232,2.0,2.0,77,0.00,,,0.00,Wunderground v.1.15,2013-07-21 04:24:00,
2013-07-21 00:30:00,78.8,71.4,29.86,SW,232,0.0,1.0,78,0.00,,,0.00,Wunderground v.1.15,2013-07-21 04:30:00,
2013-07-21 00:35:00,78.5,71.4,29.86,SW,232,0.0,1.0,79,0.00,,,0.00,Wunderground v.1.15,2013-07-21 04:35:00,
2013-07-21 00:41:00,78.2,71.2,29.86,SSW,213,2.0,2.0,79,0.00,,,0.00,Wunderground v.1.15,2013-07-21 04:41:00,
2013-07-21 00:47:00,78.2,71.2,29.86,South,185,0.0,4.0,79,0.00,,,0.00,Wunderground v.1.15,2013-07-21 04:47:00,
2013-07-21 00:52:00,78.2,71.2,29.86,South,184,1.0,1.0,79,0.00,,,0.00,Wunderground v.1.15,2013-07-21 04:52:00,
2013-07-21 00:57:00,78.1,71.1,29.86,South,190,0.0,3.0,79,0.00,,,0.00,Wunderground v.1.15,2013-07-21 04:57:00,
2013-07-21 01:03:00,78.0,71.3,29.86,South,190,0.0,2.0,80,0.00,,,0.00,Wunderground v.1.15,2013-07-21 05:03:00,
2013-07-21 01:08:00,77.7,71.4,29.86,South,190,0.0,2.0,81,0.00,,,0.00,Wunderground v.1.15,2013-07-21 05:08:00,
2013-07-21 01:14:00,77.5,71.2,29.86,South,190,0.0,1.0,81,0.00,,,0.00,Wunderground v.1.15,2013-07-21 05:14:00,
2013-07-21 01:19:00,77.4,71.1,29.86,South,190,0.0,2.0,81,0.00,,,0.00,Wunderground v.1.15,2013-07-21 05:19:00,
2013-07-21 01:24:00,77.4,71.1,29.86,SSW,203,2.0,2.0,81,0.00,,,0.00,Wunderground v.1.15,2013-07-21 05:24:00,
2013-07-21 01:30:00,77.3,71.4,29.86,SSW,203,0.0,1.0,82,0.00,,,0.00,Wunderground v.1.15,2013-07-21 05:30:00,
2013-07-21 01:35:00,77.1,71.2,29.87,SSW,203,0.0,1.0,82,0.00,,,0.00,Wunderground v.1.15,2013-07-21 05:35:00,
2013-07-21 01:41:00,77.0,71.1,29.87,SW,215,1.0,1.0,82,0.00,,,0.00,Wunderground v.1.15,2013-07-21 05:41:00,
2013-07-21 01:47:00,77.1,71.2,29.87,South,182,0.0,2.0,82,0.00,,,0.00,Wunderground v.1.15,2013-07-21 05:47:00,
2013-07-21 01:53:00,77.0,71.1,29.87,South,182,1.0,2.0,82,0.00,,,0.00,Wunderground v.1.15,2013-07-21 05:53:00,
2013-07-21 01:58:00,76.8,70.9,29.87,SSW,206,1.0,2.0,82,0.00,,,0.00,Wunderground v.1.15,2013-07-21 05:58:00,
2013-07-21 02:03:00,76.8,70.9,29.87,SSW,206,0.0,1.0,82,0.00,,,0.00,Wunderground v.1.15,2013-07-21 06:03:00,
2013-07-21 02:08:00,76.8,70.9,29.87,SSW,206,0.0,1.0,82,0.00,,,0.00,Wunderground v.1.15,2013-07-21 06:08:00,
2013-07-21 02:13:00,76.9,71.0,29.87,SSW,206,0.0,1.0,82,0.00,,,0.00,Wunderground v.1.15,2013-07-21 06:13:00,
2013-07-21 02:18:00,76.9,71.0,29.87,SSW,206,0.0,1.0,82,0.00,,,0.00,Wunderground v.1.15,2013-07-21 06:18:00,
2013-07-21 02:23:00,76.9,71.0,29.86,SSW,206,1.0,1.0,82,0.00,,,0.00,Wunderground v.1.15,2013-07-21 06:23:00,
2013-07-21 02:28:00,76.9,71.3,29.87,SSW,207,1.0,2.0,83,0.00,,,0.00,Wunderground v.1.15,2013-07-21 06:28:00,
2013-07-21 02:33:00,76.8,71.2,29.87,SSW,209,2.0,2.0,83,0.00,,,0.00,Wunderground v.1.15,2013-07-21 06:33:00,
2013-07-21 02:38:00,76.6,71.0,29.86,SW,225,1.0,3.0,83,0.00,,,0.00,Wunderground v.1.15,2013-07-21 06:38:00,
2013-07-21 02:43:00,76.5,71.3,29.87,West,266,1.0,3.0,84,0.00,,,0.00,Wunderground v.1.15,2013-07-21 06:43:00,
2013-07-21 02:48:00,76.4,71.2,29.87,West,266,0.0,3.0,84,0.00,,,0.00,Wunderground v.1.15,2013-07-21 06:48:00,
2013-07-21 02:53:00,76.4,71.2,29.86,West,266,0.0,1.0,84,0.00,,,0.00,Wunderground v.1.15,2013-07-21 06:53:00,
2013-07-21 02:58:00,76.2,71.0,29.86,West,266,1.0,2.0,84,0.00,,,0.00,Wunderground v.1.15,2013-07-21 06:58:00,
2013-07-21 03:03:00,76.1,70.9,29.86,West,266,1.0,3.0,84,0.00,,,0.00,Wunderground v.1.15,2013-07-21 07:03:00,
2013-07-21 03:08:00,75.9,70.7,29.86,West,266,0.0,3.0,84,0.00,,,0.00,Wunderground v.1.15,2013-07-21 07:08:00,
2013-07-21 03:13:00,75.6,70.8,29.86,West,266,0.0,1.0,85,0.00,,,0.00,Wunderground v.1.15,2013-07-21 07:13:00,
2013-07-21 03:18:00,75.5,71.0,29.86,West,266,1.0,1.0,86,0.00,,,0.00,Wunderground v.1.15,2013-07-21 07:18:00,
2013-07-21 03:24:00,75.5,71.0,29.86,West,266,0.0,1.0,86,0.00,,,0.00,Wunderground v.1.15,2013-07-21 07:24:00,
2013-07-21 03:29:00,75.2,70.7,29.86,West,266,0.0,1.0,86,0.00,,,0.00,Wunderground v.1.15,2013-07-21 07:29:00,
2013-07-21 03:34:00,75.0,70.9,29.86,West,266,0.0,1.0,87,0.00,,,0.00,Wunderground v.1.15,2013-07-21 07:34:00,
2013-07-21 03:39:00,74.8,70.7,29.86,West,266,0.0,1.0,87,0.00,,,0.00,Wunderground v.1.15,2013-07-21 07:39:00,
2013-07-21 03:44:00,74.7,70.9,29.86,West,266,0.0,1.0,88,0.00,,,0.00,Wunderground v.1.15,2013-07-21 07:44:00,
2013-07-21 03:49:00,74.6,70.8,29.85,West,266,1.0,1.0,88,0.00,,,0.00,Wunderground v.1.15,2013-07-21 07:49:00,
2013-07-21 03:54:00,74.6,70.8,29.85,West,266,1.0,2.0,88,0.00,,,0.00,Wunderground v.1.15,2013-07-21 07:54:00,
2013-07-21 03:59:00,74.6,70.8,29.86,West,266,1.0,2.0,88,0.00,,,0.00,Wunderground v.1.15,2013-07-21 07:59:00,
2013-07-21 04:04:00,74.6,70.8,29.85,West,266,1.0,1.0,88,0.00,,,0.00,Wunderground v.1.15,2013-07-21 08:04:00,
2013-07-21 04:09:00,74.6,70.8,29.85,West,266,0.0,1.0,88,0.00,,,0.00,Wunderground v.1.15,2013-07-21 08:09:00,
2013-07-21 04:14:00,74.4,70.6,29.85,West,264,1.0,3.0,88,0.00,,,0.00,Wunderground v.1.15,2013-07-21 08:14:00,
2013-07-21 04:19:00,74.5,70.7,29.85,West,265,1.0,3.0,88,0.00,,,0.00,Wunderground v.1.15,2013-07-21 08:19:00,
2013-07-21 04:24:00,74.8,70.7,29.86,West,265,1.0,2.0,87,0.00,,,0.00,Wunderground v.1.15,2013-07-21 08:24:00,
2013-07-21 04:29:00,75.0,70.9,29.86,West,265,0.0,2.0,87,0.00,,,0.00,Wunderground v.1.15,2013-07-21 08:29:00,
2013-07-21 04:34:00,74.9,70.4,29.86,West,265,1.0,2.0,86,0.00,,,0.00,Wunderground v.1.15,2013-07-21 08:34:00,
2013-07-21 04:39:00,75.0,70.5,29.86,West,265,0.0,2.0,86,0.00,,,0.00,Wunderground v.1.15,2013-07-21 08:39:00,
2013-07-21 04:44:00,75.1,70.3,29.86,West,265,0.0,1.0,85,0.00,,,0.00,Wunderground v.1.15,2013-07-21 08:44:00,
2013-07-21 04:49:00,75.2,70.4,29.86,West,265,0.0,1.0,85,0.00,,,0.00,Wunderground v.1.15,2013-07-21 08:49:00,
2013-07-21 04:54:00,75.3,70.1,29.86,West,265,0.0,0.0,84,0.00,,,0.00,Wunderground v.1.15,2013-07-21 08:54:00,
2013-07-21 04:59:00,75.2,70.0,29.86,West,265,0.0,1.0,84,0.00,,,0.00,Wunderground v.1.15,2013-07-21 08:59:00,
2013-07-21 05:04:00,74.8,70.7,29.86,West,265,0.0,0.0,87,0.00,,,0.00,Wunderground v.1.15,2013-07-21 09:04:00,
2013-07-21 05:09:00,74.6,70.5,29.86,West,265,0.0,0.0,87,0.00,,,0.00,Wunderground v.1.15,2013-07-21 09:09:00,
2013-07-21 05:14:00,74.3,70.2,29.87,West,265,0.0,0.0,87,0.00,,,0.00,Wunderground v.1.15,2013-07-21 09:14:00,
2013-07-21 05:19:00,74.0,69.5,29.87,West,265,0.0,0.0,86,0.00,,,0.00,Wunderground v.1.15,2013-07-21 09:19:00,
2013-07-21 05:25:00,74.0,69.5,29.87,West,265,0.0,1.0,86,0.00,,,0.00,Wunderground v.1.15,2013-07-21 09:25:00,
2013-07-21 05:30:00,74.0,69.2,29.88,WNW,285,0.0,1.0,85,0.00,,,0.00,Wunderground v.1.15,2013-07-21 09:30:00,
2013-07-21 05:35:00,74.3,68.8,29.88,WNW,285,0.0,1.0,83,0.00,,,0.00,Wunderground v.1.15,2013-07-21 09:35:00,
2013-07-21 05:40:00,74.5,68.6,29.88,NNW,335,0.0,1.0,82,0.00,,,0.00,Wunderground v.1.15,2013-07-21 09:40:00,
2013-07-21 05:45:00,74.2,68.3,29.88,NNW,335,0.0,1.0,82,0.00,,,0.00,Wunderground v.1.15,2013-07-21 09:45:00,
2013-07-21 05:50:00,73.9,68.8,29.88,WNW,284,0.0,0.0,84,0.00,,,0.00,Wunderground v.1.15,2013-07-21 09:50:00,
2013-07-21 05:55:00,73.6,68.8,29.88,WNW,284,0.0,1.0,85,0.00,,,0.00,Wunderground v.1.15,2013-07-21 09:55:00,
2013-07-21 06:00:00,73.5,68.4,29.88,WNW,284,0.0,0.0,84,0.00,,,0.00,Wunderground v.1.15,2013-07-21 10:00:00,
2013-07-21 06:05:00,73.8,68.3,29.88,WNW,284,0.0,0.0,83,0.00,,,0.00,Wunderground v.1.15,2013-07-21 10:05:00,
2013-07-21 06:10:00,74.1,68.3,29.88,WNW,284,0.0,0.0,82,0.00,,,0.00,Wunderground v.1.15,2013-07-21 10:10:00,
2013-07-21 06:15:00,74.3,68.4,29.88,WNW,284,0.0,0.0,82,0.00,,,0.00,Wunderground v.1.15,2013-07-21 10:15:00,
2013-07-21 06:20:00,74.2,68.3,29.88,WNW,284,0.0,0.0,82,0.00,,,0.00,Wunderground v.1.15,2013-07-21 10:20:00,
2013-07-21 06:26:00,74.2,68.3,29.89,WNW,284,0.0,0.0,82,0.00,,,0.00,Wunderground v.1.15,2013-07-21 10:26:00,
2013-07-21 06:31:00,74.2,68.3,29.89,WNW,284,0.0,0.0,82,0.00,,,0.00,Wunderground v.1.15,2013-07-21 10:31:00,
2013-07-21 06:36:00,74.0,68.5,29.89,WNW,284,0.0,0.0,83,0.00,,,0.00,Wunderground v.1.15,2013-07-21 10:36:00,
2013-07-21 06:41:00,73.9,68.8,29.89,WNW,284,0.0,0.0,84,0.00,,,0.00,Wunderground v.1.15,2013-07-21 10:41:00,
2013-07-21 06:46:00,73.5,68.7,29.89,WNW,284,0.0,1.0,85,0.00,,,0.00,Wunderground v.1.15,2013-07-21 10:46:00,
2013-07-21 06:51:00,73.5,68.7,29.89,WNW,284,0.0,0.0,85,0.00,,,0.00,Wunderground v.1.15,2013-07-21 10:51:00,
2013-07-21 06:56:00,73.6,68.8,29.89,WNW,284,0.0,0.0,85,0.00,,,0.00,Wunderground v.1.15,2013-07-21 10:56:00,
2013-07-21 07:01:00,73.9,69.4,29.89,WNW,284,0.0,0.0,86,0.00,,,0.00,Wunderground v.1.15,2013-07-21 11:01:00,
2013-07-21 07:06:00,73.9,69.8,29.89,WNW,284,0.0,0.0,87,0.00,,,0.00,Wunderground v.1.15,2013-07-21 11:06:00,
2013-07-21 07:11:00,74.0,69.9,29.89,WNW,284,0.0,0.0,87,0.00,,,0.00,Wunderground v.1.15,2013-07-21 11:11:00,
2013-07-21 07:16:00,74.5,70.0,29.89,WNW,284,0.0,0.0,86,0.00,,,0.00,Wunderground v.1.15,2013-07-21 11:16:00,
2013-07-21 07:21:00,74.7,70.2,29.89,WNW,284,1.0,1.0,86,0.00,,,0.00,Wunderground v.1.15,2013-07-21 11:21:00,
2013-07-21 07:26:00,74.8,70.0,29.90,WNW,284,1.0,2.0,85,0.00,,,0.00,Wunderground v.1.15,2013-07-21 11:26:00,
2013-07-21 07:31:00,75.1,70.6,29.90,WNW,284,1.0,1.0,86,0.00,,,0.00,Wunderground v.1.15,2013-07-21 11:31:00,
2013-07-21 07:36:00,75.8,71.0,29.90,WNW,284,0.0,1.0,85,0.00,,,0.00,Wunderground v.1.15,2013-07-21 11:36:00,
2013-07-21 07:42:00,76.3,71.5,29.90,WNW,284,0.0,0.0,85,0.00,,,0.00,Wunderground v.1.15,2013-07-21 11:42:00,
2013-07-21 07:47:00,77.1,71.5,29.90,WNW,284,0.0,0.0,83,0.00,,,0.00,Wunderground v.1.15,2013-07-21 11:47:00,
2013-07-21 07:52:00,77.6,70.9,29.90,WNW,284,0.0,0.0,80,0.00,,,0.00,Wunderground v.1.15,2013-07-21 11:52:00,
2013-07-21 07:56:00,78.0,71.3,29.89,WNW,284,0.0,0.0,80,0.00,,,0.00,Wunderground v.1.15,2013-07-21 11:56:00,
2013-07-21 08:02:00,78.1,72.2,29.89,WNW,284,1.0,1.0,82,0.00,,,0.00,Wunderground v.1.15,2013-07-21 12:02:00,
2013-07-21 08:07:00,78.2,70.8,29.90,WNW,284,1.0,1.0,78,0.00,,,0.00,Wunderground v.1.15,2013-07-21 12:07:00,
2013-07-21 08:12:00,78.6,71.9,29.90,WNW,284,1.0,1.0,80,0.00,,,0.00,Wunderground v.1.15,2013-07-21 12:12:00,
2013-07-21 08:17:00,79.0,71.6,29.90,WNW,284,1.0,2.0,78,0.00,,,0.00,Wunderground v.1.15,2013-07-21 12:17:00,
2013-07-21 08:22:00,79.6,71.0,29.90,WNW,284,1.0,2.0,75,0.00,,,0.00,Wunderground v.1.15,2013-07-21 12:22:00,
2013-07-21 08:27:00,80.2,72.7,29.90,WNW,284,1.0,2.0,78,0.00,,,0.00,Wunderground v.1.15,2013-07-21 12:27:00,
2013-07-21 08:32:00,80.1,71.5,29.90,WNW,284,1.0,3.0,75,0.00,,,0.00,Wunderground v.1.15,2013-07-21 12:32:00,
2013-07-21 08:37:00,80.3,72.0,29.90,WNW,284,2.0,3.0,76,0.00,,,0.00,Wunderground v.1.15,2013-07-21 12:37:00,
2013-07-21 08:42:00,80.5,71.8,29.90,West,272,3.0,5.0,75,0.00,,,0.00,Wunderground v.1.15,2013-07-21 12:42:00,
2013-07-21 08:47:00,80.2,71.2,29.90,West,280,2.0,5.0,74,0.00,,,0.00,Wunderground v.1.15,2013-07-21 12:47:00,
2013-07-21 08:52:00,80.4,71.3,29.90,WNW,289,2.0,3.0,74,0.00,,,0.00,Wunderground v.1.15,2013-07-21 12:52:00,
2013-07-21 08:57:00,81.0,71.9,29.90,WNW,284,3.0,4.0,74,0.00,,,0.00,Wunderground v.1.15,2013-07-21 12:57:00,
2013-07-21 09:02:00,81.4,71.1,29.90,West,275,5.0,7.0,71,0.00,,,0.00,Wunderground v.1.15,2013-07-21 13:02:00,
2013-07-21 09:07:00,81.4,71.5,29.90,NW,307,5.0,7.0,72,0.00,,,0.00,Wunderground v.1.15,2013-07-21 13:07:00,
2013-07-21 09:12:00,81.0,71.1,29.90,WNW,303,2.0,4.0,72,0.00,,,0.00,Wunderground v.1.15,2013-07-21 13:12:00,
2013-07-21 09:17:00,81.3,73.0,29.90,West,273,3.0,4.0,76,0.00,,,0.00,Wunderground v.1.15,2013-07-21 13:17:00,
2013-07-21 09:22:00,82.1,72.2,29.90,West,273,0.0,3.0,72,0.00,,,0.00,Wunderground v.1.15,2013-07-21 13:22:00,
2013-07-21 09:27:00,82.6,73.5,29.90,West,279,2.0,4.0,74,0.00,,,0.00,Wunderground v.1.15,2013-07-21 13:27:00,
2013-07-21 09:33:00,82.7,72.3,29.90,WNW,288,2.0,3.0,71,0.00,,,0.00,Wunderground v.1.15,2013-07-21 13:33:00,
2013-07-21 09:38:00,83.1,73.5,29.90,West,279,1.0,3.0,73,0.00,,,0.00,Wunderground v.1.15,2013-07-21 13:38:00,
2013-07-21 09:43:00,83.0,72.2,29.90,NW,304,3.0,4.0,70,0.00,,,0.00,Wunderground v.1.15,2013-07-21 13:43:00,
2013-07-21 09:48:00,83.0,73.4,29.90,West,275,2.0,4.0,73,0.00,,,0.00,Wunderground v.1.15,2013-07-21 13:48:00,
2013-07-21 09:53:00,83.1,71.9,29.90,West,275,1.0,3.0,69,0.00,,,0.00,Wunderground v.1.15,2013-07-21 13:53:00,
2013-07-21 09:58:00,83.8,73.8,29.90,West,274,2.0,3.0,72,0.00,,,0.00,Wunderground v.1.15,2013-07-21 13:58:00,
2013-07-21 10:03:00,84.4,73.1,29.90,West,274,1.0,3.0,69,0.00,,,0.00,Wunderground v.1.15,2013-07-21 14:03:00,
2013-07-21 10:08:00,84.2,72.0,29.90,WNW,298,3.0,3.0,67,0.00,,,0.00,Wunderground v.1.15,2013-07-21 14:08:00,
2013-07-21 10:13:00,83.6,72.8,29.91,WNW,297,0.0,2.0,70,0.00,,,0.00,Wunderground v.1.15,2013-07-21 14:13:00,
2013-07-21 10:18:00,84.4,71.3,29.91,WNW,297,1.0,2.0,65,0.00,,,0.00,Wunderground v.1.15,2013-07-21 14:18:00,
2013-07-21 10:23:00,85.1,74.2,29.91,WNW,286,0.0,3.0,70,0.00,,,0.00,Wunderground v.1.15,2013-07-21 14:23:00,
2013-07-21 10:28:00,85.0,72.8,29.91,WNW,282,3.0,3.0,67,0.00,,,0.00,Wunderground v.1.15,2013-07-21 14:28:00,
2013-07-21 10:33:00,85.4,73.6,29.91,WSW,240,1.0,3.0,68,0.00,,,0.00,Wunderground v.1.15,2013-07-21 14:33:00,
2013-07-21 10:38:00,85.7,73.9,29.91,West,279,3.0,4.0,68,0.00,,,0.00,Wunderground v.1.15,2013-07-21 14:38:00,
2013-07-21 10:43:00,85.9,73.7,29.91,West,280,3.0,6.0,67,0.00,,,0.00,Wunderground v.1.15,2013-07-21 14:43:00,
2013-07-21 10:48:00,85.8,74.0,29.91,WNW,288,2.0,6.0,68,0.00,,,0.00,Wunderground v.1.15,2013-07-21 14:48:00,
2013-07-21 10:53:00,85.8,71.7,29.91,West,277,4.0,6.0,63,0.00,,,0.00,Wunderground v.1.15,2013-07-21 14:53:00,
2013-07-21 10:58:00,86.4,73.7,29.91,WNW,300,3.0,6.0,66,0.00,,,0.00,Wunderground v.1.15,2013-07-21 14:58:00,
2013-07-21 11:03:00,86.3,74.0,29.91,West,270,2.0,5.0,67,0.00,,,0.00,Wunderground v.1.15,2013-07-21 15:03:00,
2013-07-21 11:08:00,86.6,73.0,29.91,West,275,3.0,5.0,64,0.00,,,0.00,Wunderground v.1.15,2013-07-21 15:08:00,
2013-07-21 11:13:00,86.5,72.9,29.91,West,259,0.0,4.0,64,0.00,,,0.00,Wunderground v.1.15,2013-07-21 15:13:00,
2013-07-21 11:18:00,86.7,73.1,29.91,West,278,1.0,6.0,64,0.00,,,0.00,Wunderground v.1.15,2013-07-21 15:18:00,
2013-07-21 11:24:00,86.8,73.6,29.91,SW,233,1.0,3.0,65,0.00,,,0.00,Wunderground v.1.15,2013-07-21 15:24:00,
2013-07-21 11:29:00,86.8,72.7,29.91,West,267,2.0,3.0,63,0.00,,,0.00,Wunderground v.1.15,2013-07-21 15:29:00,
2013-07-21 11:34:00,86.6,74.3,29.91,West,270,2.0,4.0,67,0.00,,,0.00,Wunderground v.1.15,2013-07-21 15:34:00,
2013-07-21 11:39:00,87.0,74.3,29.91,WSW,248,1.0,4.0,66,0.00,,,0.00,Wunderground v.1.15,2013-07-21 15:39:00,
2013-07-21 11:44:00,87.0,72.4,29.91,WNW,285,2.0,2.0,62,0.00,,,0.00,Wunderground v.1.15,2013-07-21 15:44:00,
2013-07-21 11:49:00,87.3,73.6,29.91,NW,304,1.0,5.0,64,0.00,,,0.00,Wunderground v.1.15,2013-07-21 15:49:00,
2013-07-21 11:54:00,87.7,74.5,29.91,West,274,1.0,4.0,65,0.00,,,0.00,Wunderground v.1.15,2013-07-21 15:54:00,
2013-07-21 11:59:00,87.8,73.2,29.91,ENE,59,3.0,4.0,62,0.00,,,0.00,Wunderground v.1.15,2013-07-21 15:59:00,
2013-07-21 12:04:00,87.7,72.1,29.91,WNW,284,0.0,5.0,60,0.00,,,0.00,Wunderground v.1.15,2013-07-21 16:04:00,
2013-07-21 12:09:00,88.0,74.8,29.91,WNW,282,3.0,6.0,65,0.00,,,0.00,Wunderground v.1.15,2013-07-21 16:09:00,
2013-07-21 12:14:00,88.4,76.5,29.91,WSW,238,1.0,4.0,68,0.00,,,0.00,Wunderground v.1.15,2013-07-21 16:14:00,
2013-07-21 12:19:00,88.3,72.7,29.91,WNW,302,2.0,4.0,60,0.00,,,0.00,Wunderground v.1.15,2013-07-21 16:19:00,
2013-07-21 12:24:00,87.6,72.5,29.91,WNW,302,2.0,2.0,61,0.00,,,0.00,Wunderground v.1.15,2013-07-21 16:24:00,
2013-07-21 12:29:00,88.2,73.0,29.91,WNW,302,2.0,3.0,61,0.00,,,0.00,Wunderground v.1.15,2013-07-21 16:29:00,
2013-07-21 12:34:00,88.8,75.5,29.91,NW,311,4.0,4.0,65,0.00,,,0.00,Wunderground v.1.15,2013-07-21 16:34:00,
2013-07-21 12:39:00,88.9,73.7,29.91,WNW,301,3.0,4.0,61,0.00,,,0.00,Wunderground v.1.15,2013-07-21 16:39:00,
2013-07-21 12:44:00,88.8,74.6,29.90,WNW,284,4.0,5.0,63,0.00,,,0.00,Wunderground v.1.15,2013-07-21 16:44:00,
2013-07-21 12:49:00,88.5,74.8,29.91,West,267,3.0,5.0,64,0.00,,,0.00,Wunderground v.1.15,2013-07-21 16:49:00,
2013-07-21 12:54:00,88.4,72.2,29.91,West,277,3.0,3.0,59,0.00,,,0.00,Wunderground v.1.15,2013-07-21 16:54:00,
2013-07-21 13:00:00,89.2,74.5,29.91,West,279,2.0,3.0,62,0.00,,,0.00,Wunderground v.1.15,2013-07-21 17:00:00,
2013-07-21 13:05:00,89.5,74.3,29.91,West,264,1.0,3.0,61,0.00,,,0.00,Wunderground v.1.15,2013-07-21 17:05:00,
2013-07-21 13:10:00,89.9,77.0,29.90,WNW,287,2.0,2.0,66,0.00,,,0.00,Wunderground v.1.15,2013-07-21 17:10:00,
2013-07-21 13:15:00,89.9,74.6,29.90,NW,319,3.0,5.0,61,0.00,,,0.00,Wunderground v.1.15,2013-07-21 17:15:00,
2013-07-21 13:20:00,89.3,75.0,29.90,WNW,302,3.0,3.0,63,0.00,,,0.00,Wunderground v.1.15,2013-07-21 17:20:00,
2013-07-21 13:25:00,89.8,74.6,29.90,West,266,3.0,5.0,61,0.00,,,0.00,Wunderground v.1.15,2013-07-21 17:25:00,
2013-07-21 13:30:00,89.4,74.2,29.90,WSW,257,4.0,4.0,61,0.00,,,0.00,Wunderground v.1.15,2013-07-21 17:30:00,
2013-07-21 13:35:00,89.1,74.9,29.89,WNW,302,3.0,6.0,63,0.00,,,0.00,Wunderground v.1.15,2013-07-21 17:35:00,
2013-07-21 13:40:00,90.0,73.2,29.89,WNW,292,2.0,3.0,58,0.00,,,0.00,Wunderground v.1.15,2013-07-21 17:40:00,
2013-07-21 13:45:00,89.8,72.5,29.89,SSW,196,0.0,7.0,57,0.00,,,0.00,Wunderground v.1.15,2013-07-21 17:45:00,
2013-07-21 13:50:00,88.2,72.6,29.89,West,279,3.0,3.0,60,0.00,,,0.00,Wunderground v.1.15,2013-07-21 17:50:00,
2013-07-21 13:55:00,88.7,75.0,29.89,NW,318,3.0,7.0,64,0.00,,,0.00,Wunderground v.1.15,2013-07-21 17:55:00,
2013-07-21 14:00:00,90.1,74.8,29.89,NW,307,5.0,5.0,61,0.00,,,0.00,Wunderground v.1.15,2013-07-21 18:00:00,
2013-07-21 14:05:00,90.7,75.9,29.89,WNW,282,2.0,5.0,62,0.00,,,0.00,Wunderground v.1.15,2013-07-21 18:05:00,
2013-07-21 14:10:00,89.6,72.9,29.89,WNW,286,1.0,3.0,58,0.00,,,0.00,Wunderground v.1.15,2013-07-21 18:10:00,
2013-07-21 14:15:00,87.5,71.4,29.90,West,274,2.0,6.0,59,0.00,,,0.00,Wunderground v.1.15,2013-07-21 18:15:00,
2013-07-21 14:20:00,89.6,72.9,29.89,WSW,246,0.0,2.0,58,0.00,,,0.00,Wunderground v.1.15,2013-07-21 18:20:00,
2013-07-21 14:25:00,89.1,71.4,29.89,SW,220,1.0,2.0,56,0.00,,,0.00,Wunderground v.1.15,2013-07-21 18:25:00,
2013-07-21 14:30:00,89.8,73.0,29.89,West,275,2.0,3.0,58,0.00,,,0.00,Wunderground v.1.15,2013-07-21 18:30:00,
2013-07-21 14:35:00,90.0,71.7,29.88,West,276,3.0,6.0,55,0.00,,,0.00,Wunderground v.1.15,2013-07-21 18:35:00,
2013-07-21 14:40:00,89.5,71.2,29.88,South,171,4.0,4.0,55,0.00,,,0.00,Wunderground v.1.15,2013-07-21 18:40:00,
2013-07-21 14:45:00,90.0,73.2,29.88,WNW,289,2.0,4.0,58,0.00,,,0.00,Wunderground v.1.15,2013-07-21 18:45:00,
2013-07-21 14:50:00,89.3,72.1,29.88,WNW,289,1.0,2.0,57,0.00,,,0.00,Wunderground v.1.15,2013-07-21 18:50:00,
2013-07-21 14:55:00,88.2,71.6,29.88,West,268,0.0,2.0,58,0.00,,,0.00,Wunderground v.1.15,2013-07-21 18:55:00,
2013-07-21 15:00:00,87.8,72.7,29.88,West,268,2.0,2.0,61,0.00,,,0.00,Wunderground v.1.15,2013-07-21 19:00:00,
2013-07-21 15:05:00,88.0,71.9,29.88,West,279,1.0,4.0,59,0.00,,,0.00,Wunderground v.1.15,2013-07-21 19:05:00,
2013-07-21 15:10:00,87.7,73.1,29.88,West,279,0.0,2.0,62,0.00,,,0.00,Wunderground v.1.15,2013-07-21 19:10:00,
2013-07-21 15:15:00,87.4,73.3,29.88,West,279,1.0,3.0,63,0.00,,,0.00,Wunderground v.1.15,2013-07-21 19:15:00,
2013-07-21 15:20:00,86.9,74.2,29.88,West,279,0.0,1.0,66,0.00,,,0.00,Wunderground v.1.15,2013-07-21 19:20:00,
2013-07-21 15:25:00,86.7,73.1,29.88,West,264,2.0,2.0,64,0.00,,,0.00,Wunderground v.1.15,2013-07-21 19:25:00,
2013-07-21 15:30:00,86.2,72.6,29.88,West,274,2.0,3.0,64,0.00,,,0.00,Wunderground v.1.15,2013-07-21 19:30:00,
2013-07-21 15:35:00,86.0,71.9,29.88,West,274,0.0,4.0,63,0.00,,,0.00,Wunderground v.1.15,2013-07-21 19:35:00,
2013-07-21 15:40:00,85.7,72.6,29.88,West,274,1.0,1.0,65,0.00,,,0.00,Wunderground v.1.15,2013-07-21 19:40:00,
2013-07-21 15:45:00,85.4,72.3,29.88,SSW,213,3.0,7.0,65,0.00,,,0.00,Wunderground v.1.15,2013-07-21 19:45:00,
2013-07-21 15:50:00,84.3,72.6,29.88,WNW,296,0.0,2.0,68,0.00,,,0.00,Wunderground v.1.15,2013-07-21 19:50:00,
2013-07-21 15:55:00,83.6,73.2,29.88,SSW,202,5.0,6.0,71,0.00,,,0.00,Wunderground v.1.15,2013-07-21 19:55:00,
2013-07-21 16:00:00,82.6,73.9,29.89,West,261,2.0,3.0,75,0.00,,,0.00,Wunderground v.1.15,2013-07-21 20:00:00,
2013-07-21 16:05:00,81.5,73.6,29.88,SSW,194,0.0,8.0,77,0.00,,,0.00,Wunderground v.1.15,2013-07-21 20:05:00,
2013-07-21 16:10:00,80.7,74.0,29.89,West,281,2.0,5.0,80,0.00,,,0.00,Wunderground v.1.15,2013-07-21 20:10:00,
2013-07-21 16:15:00,80.3,72.8,29.89,WNW,283,6.0,7.0,78,0.00,,,0.00,Wunderground v.1.15,2013-07-21 20:15:00,
2013-07-21 16:20:00,80.0,72.5,29.89,West,275,1.0,4.0,78,0.00,,,0.00,Wunderground v.1.15,2013-07-21 20:20:00,
2013-07-21 16:25:00,79.7,72.6,29.89,West,275,2.0,4.0,79,0.00,,,0.00,Wunderground v.1.15,2013-07-21 20:25:00,
2013-07-21 16:30:00,79.7,73.0,29.89,West,278,4.0,5.0,80,0.00,,,0.00,Wunderground v.1.15,2013-07-21 20:30:00,
2013-07-21 16:35:00,79.3,73.0,29.88,West,272,3.0,6.0,81,0.00,,,0.00,Wunderground v.1.15,2013-07-21 20:35:00,
2013-07-21 16:40:00,78.9,72.6,29.88,West,281,2.0,4.0,81,0.00,,,0.00,Wunderground v.1.15,2013-07-21 20:40:00,
2013-07-21 16:45:00,78.7,72.4,29.88,NW,308,5.0,5.0,81,0.00,,,0.00,Wunderground v.1.15,2013-07-21 20:45:00,
2013-07-21 16:50:00,78.5,72.5,29.88,WNW,293,2.0,4.0,82,0.00,,,0.00,Wunderground v.1.15,2013-07-21 20:50:00,
2013-07-21 16:55:00,78.4,72.8,29.88,WNW,291,2.0,4.0,83,0.00,,,0.00,Wunderground v.1.15,2013-07-21 20:55:00,
2013-07-21 17:00:00,78.3,73.4,29.88,WNW,291,2.0,2.0,85,0.00,,,0.01,Wunderground v.1.15,2013-07-21 21:00:00,
2013-07-21 17:05:00,78.1,73.6,29.88,West,269,3.0,3.0,86,0.00,,,0.01,Wunderground v.1.15,2013-07-21 21:05:00,
2013-07-21 17:10:00,77.8,73.3,29.88,West,269,0.0,2.0,86,0.00,,,0.01,Wunderground v.1.15,2013-07-21 21:10:00,
2013-07-21 17:15:00,77.8,73.3,29.88,West,269,2.0,3.0,86,0.00,,,0.01,Wunderground v.1.15,2013-07-21 21:15:00,
2013-07-21 17:20:00,77.8,73.3,29.88,West,269,2.0,2.0,86,0.00,,,0.01,Wunderground v.1.15,2013-07-21 21:20:00,
2013-07-21 17:25:00,77.8,73.6,29.88,West,279,2.0,3.0,87,0.00,,,0.01,Wunderground v.1.15,2013-07-21 21:25:00,
2013-07-21 17:30:00,77.7,73.2,29.87,WNW,298,4.0,4.0,86,0.00,,,0.02,Wunderground v.1.15,2013-07-21 21:30:00,
2013-07-21 17:35:00,77.5,73.3,29.87,WNW,300,2.0,5.0,87,0.00,,,0.02,Wunderground v.1.15,2013-07-21 21:35:00,
2013-07-21 17:41:00,77.5,73.7,29.87,WNW,293,2.0,4.0,88,0.00,,,0.02,Wunderground v.1.15,2013-07-21 21:41:00,
2013-07-21 17:46:00,77.4,73.9,29.86,WNW,292,3.0,6.0,89,0.00,,,0.02,Wunderground v.1.15,2013-07-21 21:46:00,
2013-07-21 17:51:00,77.6,74.1,29.86,West,280,2.0,3.0,89,0.00,,,0.02,Wunderground v.1.15,2013-07-21 21:51:00,
2013-07-21 17:56:00,77.7,74.2,29.85,WNW,286,2.0,4.0,89,0.00,,,0.02,Wunderground v.1.15,2013-07-21 21:56:00,
2013-07-21 18:01:00,77.8,74.3,29.85,NNW,340,0.0,1.0,89,0.00,,,0.02,Wunderground v.1.15,2013-07-21 22:01:00,
2013-07-21 18:06:00,77.9,74.4,29.85,NW,314,1.0,3.0,89,0.00,,,0.02,Wunderground v.1.15,2013-07-21 22:06:00,
2013-07-21 18:11:00,77.9,74.4,29.84,NNW,330,0.0,2.0,89,0.00,,,0.02,Wunderground v.1.15,2013-07-21 22:11:00,
2013-07-21 18:16:00,77.9,74.4,29.85,West,264,0.0,5.0,89,0.00,,,0.02,Wunderground v.1.15,2013-07-21 22:16:00,
2013-07-21 18:21:00,77.7,74.2,29.85,West,263,0.0,4.0,89,0.00,,,0.02,Wunderground v.1.15,2013-07-21 22:21:00,
2013-07-21 18:26:00,77.6,74.1,29.85,ESE,105,0.0,4.0,89,0.00,,,0.02,Wunderground v.1.15,2013-07-21 22:26:00,
2013-07-21 18:31:00,77.7,74.2,29.85,ESE,105,0.0,0.0,89,0.00,,,0.02,Wunderground v.1.15,2013-07-21 22:31:00,
2013-07-21 18:36:00,77.9,74.7,29.86,ESE,105,0.0,2.0,90,0.00,,,0.02,Wunderground v.1.15,2013-07-21 22:36:00,
2013-07-21 18:41:00,77.8,74.3,29.86,ESE,105,0.0,2.0,89,0.00,,,0.02,Wunderground v.1.15,2013-07-21 22:41:00,
2013-07-21 18:46:00,78.1,74.9,29.86,ESE,105,0.0,2.0,90,0.00,,,0.02,Wunderground v.1.15,2013-07-21 22:46:00,
2013-07-21 18:51:00,78.3,74.8,29.87,ESE,105,0.0,0.0,89,0.00,,,0.02,Wunderground v.1.15,2013-07-21 22:51:00,
2013-07-21 18:56:00,78.4,74.2,29.87,ESE,105,0.0,1.0,87,0.00,,,0.02,Wunderground v.1.15,2013-07-21 22:56:00,
2013-07-21 19:01:00,78.6,74.7,29.88,ESE,105,0.0,1.0,88,0.00,,,0.02,Wunderground v.1.15,2013-07-21 23:01:00,
2013-07-21 19:06:00,78.6,74.4,29.89,ESE,105,1.0,1.0,87,0.00,,,0.02,Wunderground v.1.15,2013-07-21 23:06:00,
2013-07-21 19:11:00,78.7,74.5,29.89,ESE,105,1.0,2.0,87,0.00,,,0.02,Wunderground v.1.15,2013-07-21 23:11:00,
2013-07-21 19:16:00,78.8,74.9,29.89,ESE,105,0.0,2.0,88,0.00,,,0.02,Wunderground v.1.15,2013-07-21 23:16:00,
2013-07-21 19:17:00,78.8,74.9,29.89,ESE,105,0.0,2.0,88,0.00,,,0.02,Wunderground v.1.15,2013-07-21 23:17:00,
2013-07-21 19:22:00,78.8,74.9,29.90,ESE,105,0.0,0.0,88,0.00,,,0.02,Wunderground v.1.15,2013-07-21 23:22:00,
2013-07-21 19:27:00,78.7,74.8,29.90,ESE,105,0.0,1.0,88,0.00,,,0.02,Wunderground v.1.15,2013-07-21 23:27:00,
2013-07-21 19:32:00,78.7,75.2,29.90,SE,130,0.0,2.0,89,0.00,,,0.02,Wunderground v.1.15,2013-07-21 23:32:00,
2013-07-21 19:37:00,78.5,75.0,29.90,SE,130,0.0,2.0,89,0.00,,,0.02,Wunderground v.1.15,2013-07-21 23:37:00,
2013-07-21 19:42:00,78.4,74.9,29.90,SE,130,0.0,0.0,89,0.00,,,0.02,Wunderground v.1.15,2013-07-21 23:42:00,
2013-07-21 19:47:00,78.4,74.9,29.90,SE,133,0.0,0.0,89,0.00,,,0.02,Wunderground v.1.15,2013-07-21 23:47:00,
2013-07-21 19:52:00,78.3,74.8,29.90,SE,133,0.0,0.0,89,0.00,,,0.02,Wunderground v.1.15,2013-07-21 23:52:00,
2013-07-21 19:57:00,78.2,75.0,29.90,SE,134,0.0,0.0,90,0.00,,,0.02,Wunderground v.1.15,2013-07-21 23:57:00,
2013-07-21 20:02:00,78.1,74.9,29.90,South,172,0.0,0.0,90,0.00,,,0.02,Wunderground v.1.15,2013-07-22 00:02:00,
2013-07-21 20:07:00,78.0,74.8,29.90,South,172,0.0,0.0,90,0.00,,,0.02,Wunderground v.1.15,2013-07-22 00:07:00,
2013-07-21 20:12:00,77.8,74.6,29.90,South,172,0.0,0.0,90,0.00,,,0.02,Wunderground v.1.15,2013-07-22 00:12:00,
2013-07-21 20:17:00,77.7,74.5,29.90,South,172,0.0,0.0,90,0.00,,,0.02,Wunderground v.1.15,2013-07-22 00:17:00,
2013-07-21 20:22:00,77.5,74.3,29.90,West,261,0.0,0.0,90,0.00,,,0.02,Wunderground v.1.15,2013-07-22 00:22:00,
2013-07-21 20:27:00,77.3,74.1,29.90,West,263,0.0,0.0,90,0.00,,,0.02,Wunderground v.1.15,2013-07-22 00:27:00,
2013-07-21 20:32:00,77.2,74.0,29.90,West,263,0.0,0.0,90,0.00,,,0.02,Wunderground v.1.15,2013-07-22 00:32:00,
2013-07-21 20:33:00,77.1,73.9,29.90,West,263,0.0,0.0,90,0.00,,,0.02,Wunderground v.1.15,2013-07-22 00:33:00,
2013-07-21 20:38:00,76.9,74.1,29.89,West,263,0.0,0.0,91,0.00,,,0.02,Wunderground v.1.15,2013-07-22 00:38:00,
2013-07-21 20:43:00,76.7,73.9,29.90,West,263,0.0,0.0,91,0.00,,,0.02,Wunderground v.1.15,2013-07-22 00:43:00,
2013-07-21 20:48:00,76.7,73.9,29.89,West,263,0.0,0.0,91,0.00,,,0.02,Wunderground v.1.15,2013-07-22 00:48:00,
2013-07-21 20:53:00,76.8,74.0,29.89,West,263,0.0,0.0,91,0.00,,,0.02,Wunderground v.1.15,2013-07-22 00:53:00,
2013-07-21 20:58:00,76.9,74.1,29.89,West,263,0.0,0.0,91,0.00,,,0.02,Wunderground v.1.15,2013-07-22 00:58:00,
2013-07-21 21:03:00,76.9,74.1,29.89,West,266,0.0,0.0,91,0.00,,,0.02,Wunderground v.1.15,2013-07-22 01:03:00,
2013-07-21 21:08:00,76.9,74.4,29.90,West,266,0.0,0.0,92,0.00,,,0.02,Wunderground v.1.15,2013-07-22 01:08:00,
2013-07-21 21:13:00,77.0,74.5,29.90,West,266,0.0,0.0,92,0.00,,,0.02,Wunderground v.1.15,2013-07-22 01:13:00,
2013-07-21 21:19:00,76.9,74.4,29.90,West,266,0.0,0.0,92,0.00,,,0.02,Wunderground v.1.15,2013-07-22 01:19:00,
2013-07-21 21:24:00,76.9,74.4,29.90,SW,215,0.0,0.0,92,0.00,,,0.02,Wunderground v.1.15,2013-07-22 01:24:00,
2013-07-21 21:29:00,76.8,74.3,29.90,SW,216,0.0,0.0,92,0.00,,,0.02,Wunderground v.1.15,2013-07-22 01:29:00,
2013-07-21 21:34:00,76.8,74.6,29.90,SW,216,0.0,0.0,93,0.00,,,0.02,Wunderground v.1.15,2013-07-22 01:34:00,
2013-07-21 21:39:00,76.7,74.5,29.91,SW,216,0.0,0.0,93,0.00,,,0.02,Wunderground v.1.15,2013-07-22 01:39:00,
2013-07-21 21:44:00,76.7,74.5,29.91,SW,216,0.0,0.0,93,0.00,,,0.02,Wunderground v.1.15,2013-07-22 01:44:00,
2013-07-21 21:49:00,76.7,74.5,29.91,SW,216,0.0,0.0,93,0.00,,,0.02,Wunderground v.1.15,2013-07-22 01:49:00,
2013-07-21 21:54:00,76.6,74.1,29.91,SW,216,0.0,0.0,92,0.00,,,0.02,Wunderground v.1.15,2013-07-22 01:54:00,
2013-07-21 21:59:00,76.6,74.1,29.91,SW,216,0.0,0.0,92,0.00,,,0.02,Wunderground v.1.15,2013-07-22 01:59:00,
2013-07-21 22:04:00,76.5,74.0,29.91,SW,216,0.0,0.0,92,0.00,,,0.02,Wunderground v.1.15,2013-07-22 02:04:00,
2013-07-21 22:09:00,76.6,74.1,29.92,SW,216,0.0,0.0,92,0.00,,,0.02,Wunderground v.1.15,2013-07-22 02:09:00,
2013-07-21 22:14:00,76.5,74.0,29.91,SW,216,0.0,0.0,92,0.00,,,0.02,Wunderground v.1.15,2013-07-22 02:14:00,
2013-07-21 22:19:00,76.4,73.9,29.91,SW,216,0.0,0.0,92,0.00,,,0.02,Wunderground v.1.15,2013-07-22 02:19:00,
2013-07-21 22:25:00,76.3,73.8,29.92,SW,216,0.0,0.0,92,0.00,,,0.02,Wunderground v.1.15,2013-07-22 02:25:00,
2013-07-21 22:30:00,76.2,73.7,29.91,SW,216,0.0,0.0,92,0.00,,,0.02,Wunderground v.1.15,2013-07-22 02:30:00,
2013-07-21 22:35:00,76.2,73.7,29.92,SW,216,0.0,0.0,92,0.00,,,0.02,Wunderground v.1.15,2013-07-22 02:35:00,
2013-07-21 22:40:00,76.1,73.9,29.91,SW,216,0.0,0.0,93,0.00,,,0.02,Wunderground v.1.15,2013-07-22 02:40:00,
2013-07-21 22:45:00,75.9,73.7,29.91,SW,216,0.0,0.0,93,0.00,,,0.02,Wunderground v.1.15,2013-07-22 02:45:00,
2013-07-21 22:50:00,75.7,73.5,29.91,SW,216,0.0,0.0,93,0.00,,,0.02,Wunderground v.1.15,2013-07-22 02:50:00,
2013-07-21 22:55:00,75.6,73.4,29.91,SW,216,0.0,0.0,93,0.00,,,0.02,Wunderground v.1.15,2013-07-22 02:55:00,
2013-07-21 23:00:00,75.6,73.4,29.91,SW,216,0.0,0.0,93,0.00,,,0.02,Wunderground v.1.15,2013-07-22 03:00:00,
2013-07-21 23:05:00,75.6,73.4,29.91,SSW,198,0.0,0.0,93,0.00,,,0.02,Wunderground v.1.15,2013-07-22 03:05:00,
2013-07-21 23:10:00,75.7,73.8,29.91,SSW,198,0.0,0.0,94,0.00,,,0.02,Wunderground v.1.15,2013-07-22 03:10:00,
2013-07-21 23:15:00,75.7,73.5,29.91,SSW,198,0.0,0.0,93,0.00,,,0.02,Wunderground v.1.15,2013-07-22 03:15:00,
2013-07-21 23:20:00,75.6,73.8,29.91,SSW,198,0.0,0.0,94,0.00,,,0.02,Wunderground v.1.15,2013-07-22 03:20:00,
2013-07-21 23:25:00,75.6,73.8,29.91,SSW,198,0.0,0.0,94,0.00,,,0.02,Wunderground v.1.15,2013-07-22 03:25:00,
2013-07-21 23:30:00,75.6,73.8,29.91,SSW,198,0.0,0.0,94,0.00,,,0.02,Wunderground v.1.15,2013-07-22 03:30:00,
2013-07-21 23:35:00,75.4,73.6,29.91,SSW,198,0.0,0.0,94,0.00,,,0.02,Wunderground v.1.15,2013-07-22 03:35:00,
2013-07-21 23:40:00,75.3,73.5,29.91,SSW,198,0.0,0.0,94,0.00,,,0.02,Wunderground v.1.15,2013-07-22 03:40:00,
2013-07-21 23:45:00,75.3,73.5,29.90,SSW,198,0.0,0.0,94,0.00,,,0.02,Wunderground v.1.15,2013-07-22 03:45:00,
2013-07-21 23:51:00,75.4,73.6,29.91,SSW,198,0.0,0.0,94,0.00,,,0.02,Wunderground v.1.15,2013-07-22 03:51:00,
2013-07-21 23:56:00,75.4,73.6,29.90,SSW,198,0.0,0.0,94,0.00,,,0.02,Wunderground v.1.15,2013-07-22 03:56:00,